Home   Weather   India   Ranasan Town   Past weeks
Flag for India

Past Weather in Ranasan Town, Gujarat, India — Yesterday and Last 2 Weeks

Currently: 79 °F. Light rain. Fog. (Weather station: Ahmadabad Airport, India). See more current weather

Past Weather in Ranasan Town — Graph

°F

Ranasan Town Temperature Yesterday

Maximum temperature yesterday: 97 °F (at 3:00 pm)
Minimum temperature yesterday: 82 °F (at 4:30 am)
Average temperature yesterday: 89 °F

High & Low Weather Summary for the Past Weeks

 TemperatureHumidityPressure
High97 °F (Jul 14, 3:00 pm)100% (Jul 1, 4:30 pm)29.65 "Hg (Jul 1, 4:30 pm)
Low77 °F (Jul 1, 4:30 pm)47% (Jul 14, 3:00 pm)29.36 "Hg (Jul 2, 3:30 am)
Average85 °F79%29.49 "Hg
* Reported Jun 30 6:30 pm — Jul 15 6:30 pm, Ranasan Town. Weather by CustomWeather, © 2024

Note: Actual official high and low records may vary slightly from our data, if they occured in-between our weather recording intervals... More about our weather records

Ranasan Town Weather History for the Previous 24 Hours

Scroll right to see more
 ConditionsComfort  
Time TempWeatherWind HumidityBarometerVisibility
6:30 pm
Mon, Jul 15
79 °FDrizzle. Fog.No wind94%29.47 "Hg2 mi
6:00 pm79 °FFog.6 mph89%29.47 "Hg2 mi
5:30 pm79 °FFog.No wind89%29.47 "Hg2 mi
5:00 pm77 °FLight rain. Fog.3 mph94%29.45 "Hg1 mi
4:30 pm77 °FRain. Fog.10 mph89%29.47 "Hg1 mi
4:00 pm77 °FRain. Fog.9 mph89%29.45 "Hg1 mi
3:30 pm84 °FFog.8 mph79%29.45 "Hg1 mi
3:00 pm82 °FDrizzle. Fog.6 mph84%29.45 "Hg1 mi
2:30 pm82 °FDrizzle. More clouds than sun.7 mph84%29.45 "Hg2 mi
2:00 pm79 °FDrizzle. More clouds than sun.6 mph94%29.47 "Hg2 mi
1:30 pm77 °FThunderstorms. More clouds than sun.14 mph94%29.50 "Hg1 mi
1:00 pm77 °FThunderstorms. More clouds than sun.12 mph94%29.53 "Hg1 mi
12:30 pm77 °FStrong thunderstorms. More clouds than sun.17 mph94%29.53 "Hg1 mi
12:00 pm90 °FFog.7 mph67%29.50 "Hg2 mi
11:30 am90 °FFog.7 mph67%29.53 "Hg2 mi
10:30 am88 °FFog.7 mph75%29.53 "Hg2 mi
10:00 am88 °FFog.5 mph75%29.53 "Hg2 mi
9:30 am88 °FFog.8 mph70%29.53 "Hg2 mi
9:00 am86 °FFog.8 mph79%29.53 "Hg2 mi
8:30 am86 °FFog.6 mph79%29.53 "Hg2 mi
8:00 am86 °FFog.6 mph79%29.50 "Hg2 mi
7:00 am84 °FFog.3 mph84%29.50 "Hg2 mi
6:30 am82 °FFog.2 mph89%29.50 "Hg2 mi
6:00 am82 °FPartly cloudy.6 mph89%29.47 "Hg2 mi
5:30 am82 °FFog.7 mph89%29.47 "Hg2 mi
5:00 am84 °FLight rain. Partly cloudy.6 mph84%29.47 "Hg2 mi
4:30 am84 °FPartly cloudy.5 mph79%29.47 "Hg2 mi
4:00 am84 °FPartly cloudy.7 mph79%29.45 "Hg2 mi
3:30 am86 °FPartly cloudy.7 mph70%29.47 "Hg2 mi
3:00 am86 °FPartly cloudy.7 mph70%29.47 "Hg2 mi
2:30 am86 °FPartly cloudy.7 mph70%29.47 "Hg2 mi
2:00 am86 °FPartly cloudy.9 mph70%29.47 "Hg2 mi
1:30 am88 °FPartly cloudy.8 mph66%29.45 "Hg2 mi
1:00 am86 °FPartly cloudy.7 mph79%29.47 "Hg2 mi
12:30 am86 °FPartly cloudy.10 mph79%29.47 "Hg2 mi
12:00 am86 °FPartly cloudy.12 mph79%29.50 "Hg2 mi
11:30 pm
Sun, Jul 14
88 °FPartly cloudy.7 mph70%29.50 "Hg2 mi
11:00 pm88 °FPartly cloudy.8 mph70%29.50 "Hg2 mi
10:30 pm88 °FPartly cloudy.9 mph70%29.50 "Hg2 mi
9:30 pm90 °FPartly cloudy.7 mph67%29.45 "Hg2 mi
9:00 pm90 °FPartly cloudy.12 mph71%29.45 "Hg2 mi
8:30 pm91 °FPartly cloudy.12 mph63%29.42 "Hg2 mi
8:00 pm91 °FPartly cloudy.6 mph63%29.42 "Hg2 mi
7:30 pm93 °FScattered clouds.7 mph53%29.42 "Hg2 mi
7:00 pm95 °FScattered clouds.5 mph50%29.42 "Hg2 mi
Weather by CustomWeather, © 2024

See weather overview